CheckWX is a tool to help pilots better visualize weather data.  It is not intended as a substitute for an official pre-flight weather briefing.

11:06:19 UTC

57C METAR
East Troy Municipal Airport
East Troy, Wisconsin, USA
Current

11 mins ago

K57C 161055Z AUTO 25004KT 10SM CLR 20/19 A2990 RMK AO2 T02020190
Observed
Jul-16 @ 10:55 UTC
Wind
  • 250° at 4 KTS
Visibility
10 SM
Flight Rules
VFR
Cloud Levels
  • Clear skies
Temperature
20°C / 68°F
Dewpoint
19°C / 66°F
Humidity
94%
Altimeter
29.9" Hg
Pressure
1012.52 hPa
Previous

31 mins ago

K57C 161035Z AUTO 20005KT 10SM CLR 20/19 A2988 RMK AO2 T02030188
Observed
Jul-16 @ 10:35 UTC
Wind
  • 200° at 5 KTS
Visibility
10 SM
Flight Rules
VFR
Cloud Levels
  • Clear skies
Temperature
20°C / 68°F
Dewpoint
19°C / 66°F
Humidity
94%
Altimeter
29.88" Hg
Pressure
1011.82 hPa
Previous

51 mins ago

K57C 161015Z AUTO 19005KT 10SM CLR 20/19 A2989 RMK AO2 T02030187
Observed
Jul-16 @ 10:15 UTC
Wind
  • 190° at 5 KTS
Visibility
10 SM
Flight Rules
VFR
Cloud Levels
  • Clear skies
Temperature
20°C / 68°F
Dewpoint
19°C / 66°F
Humidity
94%
Altimeter
29.89" Hg
Pressure
1012.22 hPa